sensor_id;sensor_type;location;lat;lon;timestamp;pressure;altitude;pressure_sealevel;temperature;humidity
46534;BME280;32260;52.008;4.752;2023-06-19T00:01:47;100834.56;;;23.76;49.44
46534;BME280;32260;52.008;4.752;2023-06-19T00:04:14;100836.00;;;23.69;50.58
46534;BME280;32260;52.008;4.752;2023-06-19T00:06:40;100837.22;;;23.65;50.73
46534;BME280;32260;52.008;4.752;2023-06-19T00:09:07;100832.34;;;23.70;51.14
46534;BME280;32260;52.008;4.752;2023-06-19T00:11:33;100826.66;;;23.62;51.40
46534;BME280;32260;52.008;4.752;2023-06-19T00:13:59;100830.13;;;23.75;51.06
46534;BME280;32260;52.008;4.752;2023-06-19T00:16:27;100836.66;;;23.72;51.07
46534;BME280;32260;52.008;4.752;2023-06-19T00:18:53;100843.56;;;23.77;51.47
46534;BME280;32260;52.008;4.752;2023-06-19T00:21:23;100849.19;;;23.73;51.59
46534;BME280;32260;52.008;4.752;2023-06-19T00:23:51;100843.53;;;23.65;52.11
46534;BME280;32260;52.008;4.752;2023-06-19T00:26:18;100842.44;;;23.68;51.65
46534;BME280;32260;52.008;4.752;2023-06-19T00:28:45;100841.78;;;23.64;52.09
46534;BME280;32260;52.008;4.752;2023-06-19T00:31:13;100845.84;;;23.70;51.79
46534;BME280;32260;52.008;4.752;2023-06-19T00:33:41;100847.41;;;23.61;52.28
46534;BME280;32260;52.008;4.752;2023-06-19T00:36:15;100860.56;;;23.54;52.58
46534;BME280;32260;52.008;4.752;2023-06-19T00:38:42;100852.13;;;23.46;52.80
46534;BME280;32260;52.008;4.752;2023-06-19T00:41:08;100839.34;;;23.24;53.46
46534;BME280;32260;52.008;4.752;2023-06-19T00:43:35;100858.28;;;23.11;54.12
46534;BME280;32260;52.008;4.752;2023-06-19T00:46:02;100857.06;;;23.15;54.03
46534;BME280;32260;52.008;4.752;2023-06-19T00:48:29;100862.19;;;23.07;54.69
46534;BME280;32260;52.008;4.752;2023-06-19T00:50:56;100863.91;;;23.08;55.17
46534;BME280;32260;52.008;4.752;2023-06-19T00:53:23;100874.94;;;23.05;55.08
46534;BME280;32260;52.008;4.752;2023-06-19T00:55:51;100863.34;;;23.03;55.86
46534;BME280;32260;52.008;4.752;2023-06-19T00:58:21;100863.78;;;23.09;55.92
46534;BME280;32260;52.008;4.752;2023-06-19T01:00:48;100862.50;;;23.02;56.38
46534;BME280;32260;52.008;4.752;2023-06-19T01:03:15;100863.16;;;23.06;56.39
46534;BME280;32260;52.008;4.752;2023-06-19T01:05:42;100866.09;;;23.16;55.92
46534;BME280;32260;52.008;4.752;2023-06-19T01:08:20;100864.22;;;23.16;56.13
46534;BME280;32260;52.008;4.752;2023-06-19T01:10:54;100870.94;;;23.10;56.57
46534;BME280;32260;52.008;4.752;2023-06-19T01:16:17;100869.97;;;23.12;56.88
46534;BME280;32260;52.008;4.752;2023-06-19T01:18:44;100872.13;;;22.93;57.84
46534;BME280;32260;52.008;4.752;2023-06-19T01:21:16;100870.19;;;22.96;58.04
46534;BME280;32260;52.008;4.752;2023-06-19T01:23:43;100879.91;;;22.85;58.49
46534;BME280;32260;52.008;4.752;2023-06-19T01:26:10;100876.03;;;22.89;58.62
46534;BME280;32260;52.008;4.752;2023-06-19T01:28:38;100876.25;;;22.86;58.61
46534;BME280;32260;52.008;4.752;2023-06-19T01:31:11;100896.25;;;22.71;59.45
46534;BME280;32260;52.008;4.752;2023-06-19T01:33:39;100876.81;;;22.66;60.24
46534;BME280;32260;52.008;4.752;2023-06-19T01:36:08;100880.06;;;22.71;59.41
46534;BME280;32260;52.008;4.752;2023-06-19T01:38:35;100879.09;;;22.72;59.17
46534;BME280;32260;52.008;4.752;2023-06-19T01:41:02;100873.34;;;22.64;59.60
46534;BME280;32260;52.008;4.752;2023-06-19T01:43:31;100871.72;;;22.61;60.27
46534;BME280;32260;52.008;4.752;2023-06-19T01:45:58;100875.75;;;22.68;59.61
46534;BME280;32260;52.008;4.752;2023-06-19T01:48:26;100871.63;;;22.75;59.45
46534;BME280;32260;52.008;4.752;2023-06-19T01:50:53;100872.16;;;22.68;60.47
46534;BME280;32260;52.008;4.752;2023-06-19T01:53:19;100873.69;;;22.72;60.16
46534;BME280;32260;52.008;4.752;2023-06-19T01:55:45;100871.94;;;22.71;60.19
46534;BME280;32260;52.008;4.752;2023-06-19T01:58:11;100864.91;;;22.55;60.64
46534;BME280;32260;52.008;4.752;2023-06-19T02:00:37;100863.84;;;22.58;60.99
46534;BME280;32260;52.008;4.752;2023-06-19T02:03:04;100864.06;;;22.68;60.23
46534;BME280;32260;52.008;4.752;2023-06-19T02:05:31;100864.91;;;22.55;60.85
46534;BME280;32260;52.008;4.752;2023-06-19T02:07:57;100868.28;;;22.59;60.99
46534;BME280;32260;52.008;4.752;2023-06-19T02:10:24;100875.50;;;22.58;60.47
46534;BME280;32260;52.008;4.752;2023-06-19T02:12:50;100875.09;;;22.65;60.85
46534;BME280;32260;52.008;4.752;2023-06-19T02:15:16;100885.00;;;22.51;61.10
46534;BME280;32260;52.008;4.752;2023-06-19T02:17:42;100885.97;;;22.50;61.59
46534;BME280;32260;52.008;4.752;2023-06-19T02:20:09;100867.84;;;22.52;61.45
46534;BME280;32260;52.008;4.752;2023-06-19T02:22:38;100883.06;;;22.53;61.20
46534;BME280;32260;52.008;4.752;2023-06-19T02:25:05;100871.19;;;22.56;61.57
46534;BME280;32260;52.008;4.752;2023-06-19T02:27:31;100874.63;;;22.45;61.75
46534;BME280;32260;52.008;4.752;2023-06-19T02:29:58;100884.03;;;22.52;61.58
46534;BME280;32260;52.008;4.752;2023-06-19T02:32:25;100882.44;;;22.50;62.06
46534;BME280;32260;52.008;4.752;2023-06-19T02:34:51;100881.97;;;22.43;62.20
46534;BME280;32260;52.008;4.752;2023-06-19T02:37:17;100885.00;;;22.51;62.31
46534;BME280;32260;52.008;4.752;2023-06-19T02:39:43;100902.25;;;22.36;62.83
46534;BME280;32260;52.008;4.752;2023-06-19T02:42:09;100898.34;;;22.27;64.39
46534;BME280;32260;52.008;4.752;2023-06-19T02:44:36;100906.88;;;22.34;64.41
46534;BME280;32260;52.008;4.752;2023-06-19T02:47:02;100898.25;;;22.28;65.33
46534;BME280;32260;52.008;4.752;2023-06-19T02:49:28;100907.31;;;22.27;65.50
46534;BME280;32260;52.008;4.752;2023-06-19T02:51:55;100904.16;;;22.21;66.06
46534;BME280;32260;52.008;4.752;2023-06-19T02:54:21;100901.22;;;22.11;66.61
46534;BME280;32260;52.008;4.752;2023-06-19T02:56:47;100920.13;;;22.11;66.13
46534;BME280;32260;52.008;4.752;2023-06-19T02:59:14;100917.97;;;22.16;66.45
46534;BME280;32260;52.008;4.752;2023-06-19T03:01:40;100913.53;;;22.15;66.70
46534;BME280;32260;52.008;4.752;2023-06-19T03:04:06;100919.47;;;22.20;65.97
46534;BME280;32260;52.008;4.752;2023-06-19T03:06:32;100913.19;;;22.07;66.46
46534;BME280;32260;52.008;4.752;2023-06-19T03:09:05;100925.94;;;22.05;66.61
46534;BME280;32260;52.008;4.752;2023-06-19T03:11:39;100930.97;;;21.96;66.45
46534;BME280;32260;52.008;4.752;2023-06-19T03:14:05;100927.19;;;21.99;67.02
46534;BME280;32260;52.008;4.752;2023-06-19T03:16:34;100935.84;;;22.04;66.53
46534;BME280;32260;52.008;4.752;2023-06-19T03:19:01;100940.34;;;21.91;66.59
46534;BME280;32260;52.008;4.752;2023-06-19T03:21:27;100935.81;;;21.91;66.74
46534;BME280;32260;52.008;4.752;2023-06-19T03:23:54;100936.56;;;21.93;66.31
46534;BME280;32260;52.008;4.752;2023-06-19T03:26:21;100951.63;;;21.83;66.60
46534;BME280;32260;52.008;4.752;2023-06-19T03:28:47;100943.78;;;21.93;66.15
46534;BME280;32260;52.008;4.752;2023-06-19T03:31:15;100957.81;;;21.98;66.24
46534;BME280;32260;52.008;4.752;2023-06-19T03:33:41;100952.44;;;21.98;65.60
46534;BME280;32260;52.008;4.752;2023-06-19T03:36:07;100958.50;;;22.02;65.67
46534;BME280;32260;52.008;4.752;2023-06-19T03:38:33;100955.38;;;22.08;65.14
46534;BME280;32260;52.008;4.752;2023-06-19T03:41:00;100966.28;;;22.06;64.97
46534;BME280;32260;52.008;4.752;2023-06-19T03:43:26;100975.31;;;22.20;64.32
46534;BME280;32260;52.008;4.752;2023-06-19T03:45:52;100985.97;;;22.21;64.44
46534;BME280;32260;52.008;4.752;2023-06-19T03:48:18;100979.63;;;22.22;64.06
46534;BME280;32260;52.008;4.752;2023-06-19T03:50:44;100995.44;;;22.14;64.15
46534;BME280;32260;52.008;4.752;2023-06-19T03:53:10;100999.50;;;22.07;64.25
46534;BME280;32260;52.008;4.752;2023-06-19T03:55:36;100998.91;;;22.16;64.06
46534;BME280;32260;52.008;4.752;2023-06-19T03:58:02;101000.00;;;22.13;64.05
46534;BME280;32260;52.008;4.752;2023-06-19T04:00:29;101014.44;;;22.12;63.91
46534;BME280;32260;52.008;4.752;2023-06-19T04:02:55;101002.84;;;21.97;63.82
46534;BME280;32260;52.008;4.752;2023-06-19T04:05:22;101017.84;;;22.02;63.81
46534;BME280;32260;52.008;4.752;2023-06-19T04:07:48;101027.50;;;21.91;63.82
46534;BME280;32260;52.008;4.752;2023-06-19T04:10:14;101024.81;;;21.91;63.87
46534;BME280;32260;52.008;4.752;2023-06-19T04:12:41;101036.56;;;21.90;63.88
46534;BME280;32260;52.008;4.752;2023-06-19T04:15:08;101039.31;;;21.76;64.13
46534;BME280;32260;52.008;4.752;2023-06-19T04:17:34;101044.69;;;21.76;64.16
46534;BME280;32260;52.008;4.752;2023-06-19T04:20:00;101040.75;;;21.67;64.36
46534;BME280;32260;52.008;4.752;2023-06-19T04:22:26;101034.59;;;21.79;63.78
46534;BME280;32260;52.008;4.752;2023-06-19T04:24:52;101050.09;;;21.76;63.60
46534;BME280;32260;52.008;4.752;2023-06-19T04:27:18;101050.19;;;21.60;64.22
46534;BME280;32260;52.008;4.752;2023-06-19T04:29:44;101059.72;;;21.65;64.08
46534;BME280;32260;52.008;4.752;2023-06-19T04:32:10;101066.44;;;21.73;63.64
46534;BME280;32260;52.008;4.752;2023-06-19T04:34:39;101081.66;;;21.59;63.97
46534;BME280;32260;52.008;4.752;2023-06-19T04:37:05;101088.00;;;21.44;64.08
46534;BME280;32260;52.008;4.752;2023-06-19T04:39:31;101093.50;;;21.42;63.68
46534;BME280;32260;52.008;4.752;2023-06-19T04:41:57;101088.38;;;21.38;63.50
46534;BME280;32260;52.008;4.752;2023-06-19T04:44:23;101085.41;;;21.42;63.37
46534;BME280;32260;52.008;4.752;2023-06-19T04:46:49;101096.66;;;21.49;63.17
46534;BME280;32260;52.008;4.752;2023-06-19T04:49:15;101099.25;;;21.50;63.25
46534;BME280;32260;52.008;4.752;2023-06-19T04:51:42;101096.25;;;21.41;63.35
46534;BME280;32260;52.008;4.752;2023-06-19T04:54:08;101100.91;;;21.39;63.52
46534;BME280;32260;52.008;4.752;2023-06-19T04:56:34;101108.03;;;21.40;63.13
46534;BME280;32260;52.008;4.752;2023-06-19T04:59:00;101103.19;;;21.30;63.19
46534;BME280;32260;52.008;4.752;2023-06-19T05:01:27;101112.53;;;21.39;63.20
46534;BME280;32260;52.008;4.752;2023-06-19T05:03:54;101112.59;;;21.23;63.80
46534;BME280;32260;52.008;4.752;2023-06-19T05:06:23;101111.84;;;21.36;63.01
46534;BME280;32260;52.008;4.752;2023-06-19T05:08:49;101118.88;;;21.38;62.80
46534;BME280;32260;52.008;4.752;2023-06-19T05:11:16;101114.91;;;21.29;62.75
46534;BME280;32260;52.008;4.752;2023-06-19T05:13:42;101124.06;;;21.27;62.63
46534;BME280;32260;52.008;4.752;2023-06-19T05:16:08;101116.06;;;21.25;62.89
46534;BME280;32260;52.008;4.752;2023-06-19T05:18:34;101126.28;;;21.20;62.91
46534;BME280;32260;52.008;4.752;2023-06-19T05:21:00;101123.75;;;21.17;63.22
46534;BME280;32260;52.008;4.752;2023-06-19T05:23:26;101121.03;;;21.17;63.30
46534;BME280;32260;52.008;4.752;2023-06-19T05:25:52;101121.66;;;21.22;63.04
46534;BME280;32260;52.008;4.752;2023-06-19T05:28:18;101130.69;;;21.21;63.13
46534;BME280;32260;52.008;4.752;2023-06-19T05:30:44;101121.94;;;21.32;62.52
46534;BME280;32260;52.008;4.752;2023-06-19T05:33:10;101139.75;;;21.34;62.86
46534;BME280;32260;52.008;4.752;2023-06-19T05:35:42;101139.16;;;21.29;62.94
46534;BME280;32260;52.008;4.752;2023-06-19T05:38:09;101136.69;;;21.41;62.88
46534;BME280;32260;52.008;4.752;2023-06-19T05:40:35;101138.63;;;21.53;62.08
46534;BME280;32260;52.008;4.752;2023-06-19T05:43:02;101142.75;;;21.44;62.18
46534;BME280;32260;52.008;4.752;2023-06-19T05:45:28;101148.47;;;21.54;62.13
46534;BME280;32260;52.008;4.752;2023-06-19T05:47:54;101151.97;;;21.56;62.09
46534;BME280;32260;52.008;4.752;2023-06-19T05:50:20;101153.59;;;21.59;61.77
46534;BME280;32260;52.008;4.752;2023-06-19T05:52:46;101164.28;;;21.60;61.71
46534;BME280;32260;52.008;4.752;2023-06-19T05:55:12;101153.13;;;21.67;61.29
46534;BME280;32260;52.008;4.752;2023-06-19T05:57:38;101160.97;;;21.55;61.12
46534;BME280;32260;52.008;4.752;2023-06-19T06:00:05;101167.56;;;21.65;61.00
46534;BME280;32260;52.008;4.752;2023-06-19T06:02:31;101178.31;;;21.51;60.99
46534;BME280;32260;52.008;4.752;2023-06-19T06:04:58;101166.38;;;21.55;60.74
46534;BME280;32260;52.008;4.752;2023-06-19T06:07:24;101177.06;;;21.42;60.23
46534;BME280;32260;52.008;4.752;2023-06-19T06:09:50;101188.69;;;21.43;60.11
46534;BME280;32260;52.008;4.752;2023-06-19T06:12:16;101194.66;;;21.48;59.89
46534;BME280;32260;52.008;4.752;2023-06-19T06:14:42;101195.44;;;21.50;59.74
46534;BME280;32260;52.008;4.752;2023-06-19T06:17:08;101192.69;;;21.36;59.85
46534;BME280;32260;52.008;4.752;2023-06-19T06:19:34;101207.38;;;21.46;59.75
46534;BME280;32260;52.008;4.752;2023-06-19T06:22:02;101207.97;;;21.51;59.53
46534;BME280;32260;52.008;4.752;2023-06-19T06:24:31;101211.72;;;21.48;59.68
46534;BME280;32260;52.008;4.752;2023-06-19T06:26:57;101222.94;;;21.41;59.49
46534;BME280;32260;52.008;4.752;2023-06-19T06:29:24;101225.47;;;21.44;59.32
46534;BME280;32260;52.008;4.752;2023-06-19T06:31:50;101220.50;;;21.52;59.29
46534;BME280;32260;52.008;4.752;2023-06-19T06:34:18;101219.88;;;21.47;59.28
46534;BME280;32260;52.008;4.752;2023-06-19T06:36:45;101217.69;;;21.54;58.98
46534;BME280;32260;52.008;4.752;2023-06-19T06:39:11;101230.06;;;21.42;59.35
46534;BME280;32260;52.008;4.752;2023-06-19T06:41:37;101234.81;;;21.53;59.36
46534;BME280;32260;52.008;4.752;2023-06-19T06:44:03;101235.28;;;21.61;59.26
46534;BME280;32260;52.008;4.752;2023-06-19T06:46:30;101227.19;;;21.61;58.99
46534;BME280;32260;52.008;4.752;2023-06-19T06:51:22;101244.34;;;21.74;58.69
46534;BME280;32260;52.008;4.752;2023-06-19T06:53:49;101249.34;;;21.80;58.86
46534;BME280;32260;52.008;4.752;2023-06-19T06:56:16;101250.34;;;21.94;58.50
46534;BME280;32260;52.008;4.752;2023-06-19T06:58:42;101258.75;;;22.04;58.40
46534;BME280;32260;52.008;4.752;2023-06-19T07:01:09;101256.06;;;22.04;58.34
46534;BME280;32260;52.008;4.752;2023-06-19T07:03:35;101257.78;;;22.19;57.85
46534;BME280;32260;52.008;4.752;2023-06-19T07:06:02;101266.25;;;22.13;57.76
46534;BME280;32260;52.008;4.752;2023-06-19T07:08:28;101261.66;;;22.15;57.35
46534;BME280;32260;52.008;4.752;2023-06-19T07:10:54;101265.59;;;22.24;57.15
46534;BME280;32260;52.008;4.752;2023-06-19T07:13:20;101274.09;;;22.32;57.19
46534;BME280;32260;52.008;4.752;2023-06-19T07:15:46;101270.34;;;22.35;56.69
46534;BME280;32260;52.008;4.752;2023-06-19T07:18:12;101279.13;;;22.38;56.55
46534;BME280;32260;52.008;4.752;2023-06-19T07:20:38;101280.34;;;22.33;56.44
46534;BME280;32260;52.008;4.752;2023-06-19T07:23:04;101272.69;;;22.41;56.59
46534;BME280;32260;52.008;4.752;2023-06-19T07:25:31;101269.88;;;22.42;56.75
46534;BME280;32260;52.008;4.752;2023-06-19T07:27:59;101281.91;;;22.51;56.92
46534;BME280;32260;52.008;4.752;2023-06-19T07:30:26;101277.31;;;22.53;57.41
46534;BME280;32260;52.008;4.752;2023-06-19T07:32:52;101275.94;;;22.60;57.47
46534;BME280;32260;52.008;4.752;2023-06-19T07:35:18;101281.59;;;22.70;56.66
46534;BME280;32260;52.008;4.752;2023-06-19T07:37:45;101277.25;;;22.68;56.54
46534;BME280;32260;52.008;4.752;2023-06-19T07:40:12;101284.50;;;22.67;56.50
46534;BME280;32260;52.008;4.752;2023-06-19T07:42:38;101285.53;;;22.79;56.48
46534;BME280;32260;52.008;4.752;2023-06-19T07:45:04;101297.13;;;22.81;56.29
46534;BME280;32260;52.008;4.752;2023-06-19T07:47:31;101288.84;;;22.84;56.19
46534;BME280;32260;52.008;4.752;2023-06-19T07:49:57;101289.41;;;22.89;56.01
46534;BME280;32260;52.008;4.752;2023-06-19T07:52:23;101290.16;;;22.91;55.72
46534;BME280;32260;52.008;4.752;2023-06-19T07:54:54;101287.03;;;22.98;55.69
46534;BME280;32260;52.008;4.752;2023-06-19T07:57:20;101289.00;;;22.96;55.98
46534;BME280;32260;52.008;4.752;2023-06-19T07:59:48;101289.28;;;23.05;55.72
46534;BME280;32260;52.008;4.752;2023-06-19T08:02:14;101288.16;;;23.22;55.60
46534;BME280;32260;52.008;4.752;2023-06-19T08:04:40;101300.16;;;23.18;54.61
46534;BME280;32260;52.008;4.752;2023-06-19T08:07:07;101295.69;;;23.32;54.73
46534;BME280;32260;52.008;4.752;2023-06-19T08:09:33;101298.06;;;23.36;54.50
46534;BME280;32260;52.008;4.752;2023-06-19T08:12:01;101297.22;;;23.49;54.71
46534;BME280;32260;52.008;4.752;2023-06-19T08:14:27;101303.41;;;23.51;54.46
46534;BME280;32260;52.008;4.752;2023-06-19T08:16:54;101293.16;;;23.69;53.62
46534;BME280;32260;52.008;4.752;2023-06-19T08:19:20;101310.94;;;23.73;53.56
46534;BME280;32260;52.008;4.752;2023-06-19T08:21:46;101306.38;;;23.73;53.25
46534;BME280;32260;52.008;4.752;2023-06-19T08:24:12;101316.78;;;23.67;53.42
46534;BME280;32260;52.008;4.752;2023-06-19T08:26:38;101327.38;;;23.70;53.39
46534;BME280;32260;52.008;4.752;2023-06-19T08:29:04;101329.63;;;23.63;53.82
46534;BME280;32260;52.008;4.752;2023-06-19T08:31:30;101328.69;;;23.77;53.32
46534;BME280;32260;52.008;4.752;2023-06-19T08:33:56;101345.16;;;23.74;53.30
46534;BME280;32260;52.008;4.752;2023-06-19T08:36:22;101343.16;;;23.63;53.03
46534;BME280;32260;52.008;4.752;2023-06-19T08:38:49;101348.59;;;23.76;53.06
46534;BME280;32260;52.008;4.752;2023-06-19T08:41:18;101352.25;;;23.75;53.27
46534;BME280;32260;52.008;4.752;2023-06-19T08:43:47;101345.81;;;23.78;53.05
46534;BME280;32260;52.008;4.752;2023-06-19T08:46:17;101341.25;;;23.78;53.00
46534;BME280;32260;52.008;4.752;2023-06-19T08:48:44;101352.31;;;23.88;52.69
46534;BME280;32260;52.008;4.752;2023-06-19T08:51:11;101352.25;;;23.75;52.78
46534;BME280;32260;52.008;4.752;2023-06-19T08:53:49;101339.31;;;23.80;52.42
46534;BME280;32260;52.008;4.752;2023-06-19T08:56:17;101339.75;;;23.74;52.59
46534;BME280;32260;52.008;4.752;2023-06-19T08:58:43;101335.63;;;23.81;52.73
46534;BME280;32260;52.008;4.752;2023-06-19T09:01:09;101344.19;;;23.88;52.83
46534;BME280;32260;52.008;4.752;2023-06-19T09:03:35;101341.09;;;23.94;52.88
46534;BME280;32260;52.008;4.752;2023-06-19T09:06:07;101348.47;;;24.05;52.14
46534;BME280;32260;52.008;4.752;2023-06-19T09:08:33;101358.88;;;24.11;51.76
46534;BME280;32260;52.008;4.752;2023-06-19T09:11:01;101357.47;;;24.18;51.69
46534;BME280;32260;52.008;4.752;2023-06-19T09:13:28;101354.88;;;24.30;51.96
46534;BME280;32260;52.008;4.752;2023-06-19T09:16:07;101355.56;;;24.46;51.13
46534;BME280;32260;52.008;4.752;2023-06-19T09:18:49;101370.38;;;24.53;51.06
46534;BME280;32260;52.008;4.752;2023-06-19T09:21:20;101365.19;;;24.50;51.10
46534;BME280;32260;52.008;4.752;2023-06-19T09:23:49;101373.97;;;24.54;51.39
46534;BME280;32260;52.008;4.752;2023-06-19T09:26:17;101378.41;;;24.55;50.70
46534;BME280;32260;52.008;4.752;2023-06-19T09:28:45;101387.97;;;24.74;50.64
46534;BME280;32260;52.008;4.752;2023-06-19T09:31:12;101388.50;;;24.79;50.12
46534;BME280;32260;52.008;4.752;2023-06-19T09:33:39;101388.81;;;24.74;50.35
46534;BME280;32260;52.008;4.752;2023-06-19T09:36:06;101388.38;;;24.54;50.51
46534;BME280;32260;52.008;4.752;2023-06-19T09:38:35;101388.25;;;24.30;50.77
46534;BME280;32260;52.008;4.752;2023-06-19T09:41:05;101386.63;;;24.53;50.43
46534;BME280;32260;52.008;4.752;2023-06-19T09:43:37;101403.59;;;24.70;50.34
46534;BME280;32260;52.008;4.752;2023-06-19T09:46:04;101403.88;;;24.78;49.87
46534;BME280;32260;52.008;4.752;2023-06-19T09:48:32;101394.66;;;24.94;49.84
46534;BME280;32260;52.008;4.752;2023-06-19T09:51:12;101399.53;;;25.01;48.95
46534;BME280;32260;52.008;4.752;2023-06-19T09:53:44;101401.53;;;25.24;48.88
46534;BME280;32260;52.008;4.752;2023-06-19T09:56:11;101404.13;;;25.38;49.27
46534;BME280;32260;52.008;4.752;2023-06-19T09:58:38;101401.00;;;25.56;48.52
46534;BME280;32260;52.008;4.752;2023-06-19T10:01:05;101402.63;;;25.82;48.59
46534;BME280;32260;52.008;4.752;2023-06-19T10:03:33;101405.88;;;25.88;47.66
46534;BME280;32260;52.008;4.752;2023-06-19T10:06:01;101405.88;;;25.88;46.98
46534;BME280;32260;52.008;4.752;2023-06-19T10:08:31;101404.41;;;25.95;47.59
46534;BME280;32260;52.008;4.752;2023-06-19T10:10:57;101394.06;;;26.00;47.62
46534;BME280;32260;52.008;4.752;2023-06-19T10:13:32;101407.25;;;26.18;46.71
46534;BME280;32260;52.008;4.752;2023-06-19T10:16:00;101393.06;;;26.25;46.43
46534;BME280;32260;52.008;4.752;2023-06-19T10:18:26;101401.63;;;26.43;46.61
46534;BME280;32260;52.008;4.752;2023-06-19T10:20:54;101397.19;;;26.54;45.20
46534;BME280;32260;52.008;4.752;2023-06-19T10:23:22;101394.59;;;26.52;45.29
46534;BME280;32260;52.008;4.752;2023-06-19T10:25:57;101395.59;;;26.62;45.04
46534;BME280;32260;52.008;4.752;2023-06-19T10:31:06;101405.84;;;26.59;45.18
46534;BME280;32260;52.008;4.752;2023-06-19T10:33:44;101402.41;;;26.57;44.45
46534;BME280;32260;52.008;4.752;2023-06-19T10:39:19;101402.13;;;26.37;43.97
46534;BME280;32260;52.008;4.752;2023-06-19T10:41:46;101402.47;;;26.32;45.27
46534;BME280;32260;52.008;4.752;2023-06-19T10:44:15;101396.53;;;26.27;45.18
46534;BME280;32260;52.008;4.752;2023-06-19T10:46:46;101398.16;;;26.41;44.46
46534;BME280;32260;52.008;4.752;2023-06-19T10:49:13;101399.91;;;26.54;43.49
46534;BME280;32260;52.008;4.752;2023-06-19T10:51:41;101394.47;;;26.65;44.68
46534;BME280;32260;52.008;4.752;2023-06-19T10:54:18;101390.53;;;26.69;44.47
46534;BME280;32260;52.008;4.752;2023-06-19T10:56:51;101400.66;;;26.56;44.42
46534;BME280;32260;52.008;4.752;2023-06-19T10:59:19;101389.53;;;26.59;44.33
46534;BME280;32260;52.008;4.752;2023-06-19T11:01:47;101392.25;;;26.59;44.66
46534;BME280;32260;52.008;4.752;2023-06-19T11:04:19;101394.75;;;26.62;43.17
46534;BME280;32260;52.008;4.752;2023-06-19T11:13:44;101387.25;;;26.77;42.68
46534;BME280;32260;52.008;4.752;2023-06-19T11:16:22;101374.50;;;26.89;42.02
46534;BME280;32260;52.008;4.752;2023-06-19T11:18:56;101386.59;;;26.62;42.35
46534;BME280;32260;52.008;4.752;2023-06-19T11:21:30;101395.00;;;26.82;41.88
46534;BME280;32260;52.008;4.752;2023-06-19T11:24:02;101385.00;;;26.82;42.58
46534;BME280;32260;52.008;4.752;2023-06-19T11:26:28;101390.81;;;27.00;42.29
46534;BME280;32260;52.008;4.752;2023-06-19T11:28:55;101390.41;;;27.16;42.41
46534;BME280;32260;52.008;4.752;2023-06-19T11:31:28;101386.78;;;27.50;42.32
46534;BME280;32260;52.008;4.752;2023-06-19T11:33:57;101379.06;;;27.66;41.34
46534;BME280;32260;52.008;4.752;2023-06-19T11:36:23;101393.59;;;27.88;41.49
46534;BME280;32260;52.008;4.752;2023-06-19T11:38:52;101386.13;;;27.90;39.99
46534;BME280;32260;52.008;4.752;2023-06-19T11:41:26;101389.78;;;28.12;40.85
46534;BME280;32260;52.008;4.752;2023-06-19T11:43:59;101386.94;;;28.13;39.53
46534;BME280;32260;52.008;4.752;2023-06-19T11:46:30;101387.81;;;28.02;39.50
46534;BME280;32260;52.008;4.752;2023-06-19T11:51:46;101383.22;;;27.82;38.93
46534;BME280;32260;52.008;4.752;2023-06-19T11:54:13;101397.97;;;28.12;39.79
46534;BME280;32260;52.008;4.752;2023-06-19T11:56:41;101390.78;;;28.32;40.54
46534;BME280;32260;52.008;4.752;2023-06-19T11:59:08;101395.28;;;28.64;39.67
46534;BME280;32260;52.008;4.752;2023-06-19T12:01:35;101391.41;;;28.97;38.33
46534;BME280;32260;52.008;4.752;2023-06-19T12:04:02;101379.56;;;29.18;38.54
46534;BME280;32260;52.008;4.752;2023-06-19T12:06:30;101387.25;;;29.34;38.06
46534;BME280;32260;52.008;4.752;2023-06-19T12:08:56;101384.66;;;29.42;36.13
46534;BME280;32260;52.008;4.752;2023-06-19T12:11:22;101388.44;;;29.51;37.22
46534;BME280;32260;52.008;4.752;2023-06-19T12:13:50;101390.56;;;29.57;36.77
46534;BME280;32260;52.008;4.752;2023-06-19T12:16:16;101385.28;;;29.65;36.54
46534;BME280;32260;52.008;4.752;2023-06-19T12:18:43;101385.13;;;29.77;37.05
46534;BME280;32260;52.008;4.752;2023-06-19T12:21:09;101386.75;;;29.89;37.27
46534;BME280;32260;52.008;4.752;2023-06-19T12:23:35;101382.72;;;29.93;36.20
46534;BME280;32260;52.008;4.752;2023-06-19T12:26:01;101393.31;;;29.86;35.12
46534;BME280;32260;52.008;4.752;2023-06-19T12:28:27;101391.31;;;29.89;36.47
46534;BME280;32260;52.008;4.752;2023-06-19T12:30:53;101387.59;;;29.99;35.94
46534;BME280;32260;52.008;4.752;2023-06-19T12:33:20;101394.22;;;30.07;35.68
46534;BME280;32260;52.008;4.752;2023-06-19T12:35:47;101392.34;;;30.07;34.89
46534;BME280;32260;52.008;4.752;2023-06-19T12:38:13;101393.34;;;30.16;35.47
46534;BME280;32260;52.008;4.752;2023-06-19T12:40:40;101402.56;;;29.95;34.54
46534;BME280;32260;52.008;4.752;2023-06-19T12:43:06;101397.09;;;30.05;35.11
46534;BME280;32260;52.008;4.752;2023-06-19T12:45:33;101399.97;;;30.04;34.07
46534;BME280;32260;52.008;4.752;2023-06-19T12:47:59;101398.97;;;29.95;34.71
46534;BME280;32260;52.008;4.752;2023-06-19T12:50:25;101403.69;;;29.83;34.94
46534;BME280;32260;52.008;4.752;2023-06-19T12:52:51;101401.84;;;29.93;36.79
46534;BME280;32260;52.008;4.752;2023-06-19T12:55:17;101395.22;;;30.06;36.04
46534;BME280;32260;52.008;4.752;2023-06-19T12:57:43;101391.59;;;30.34;36.16
46534;BME280;32260;52.008;4.752;2023-06-19T13:00:12;101396.75;;;30.57;35.51
46534;BME280;32260;52.008;4.752;2023-06-19T13:02:42;101389.88;;;30.81;33.10
46534;BME280;32260;52.008;4.752;2023-06-19T13:05:09;101381.97;;;30.78;32.86
46534;BME280;32260;52.008;4.752;2023-06-19T13:07:35;101391.50;;;30.74;33.05
46534;BME280;32260;52.008;4.752;2023-06-19T13:10:02;101388.13;;;30.90;33.92
46534;BME280;32260;52.008;4.752;2023-06-19T13:12:28;101385.22;;;30.91;32.48